Orangeburg Municipal Airport
KOGB : rendu visible

Aérodrome :











RETROUVEZ-NOUS SUR...

 
LOGIN :

S'inscrire | Disclaimer

   EN    FR    IT 

 









Légende :    VFR   VFR Marginal   IFR   IFR Intensif   IFR Très Intensif
Visi : 
Plafond : 
>= 8 km
>= 3000ft
5 à 8 km
1000 à 3000 ft
1500m à 5 km
500 à 1000 ft
800 à 1500m
200 à 500 ft
< 800m
< 200 ft
Symboles :   Orages  Brouillard  Fortes neiges  Fortes précipitations  Vent > 20 kt







- Altitude de l'aérodrome : 195 ft


KOGB - Orangeburg Municipal

DERNIER METAR :
  • 190153Z AUTO 00000KT 10SM BKN095 20/14 A3013 RMK AO2 SLP199 T02000139

METARs EXPIRÉS :
  • 190053Z AUTO 00000KT 7SM SCT100 21/13 A3011 RMK AO2 SLP193 T02110133
  • 182353Z AUTO 00000KT 10SM CLR 24/12 A3009 RMK AO2 SLP187 T02390122 10278 20239 53002

TAF KOGB
Valide du 19 à 00h jusqu'au 20 à 00h UTC


182328Z 1900/1924 05006KT P6SM SCT060
FM191400 07010G16KT P6SM SKC
Pas de NOTAMs connus pour ce terrain.



MET'MAP, la Météo Aéronautique d'un coup d'oeil ! - Copyright ORBIFLY Décembre 2007 - Disclaimer

ORBIFLY MET'MAP TEAM :

Programmation & Développement : Alexandra Zaïnal
Conception & Développement : Baudouin d'Aumeries
Co-Programmation & Développement : Marc-Olivier Méhu
Soutien technique & logistique : Manuel Goepfert

Contact : metmap@orbifly.com




SOURCES & CREDITS :

   NOAA       Earth
Advisory